LFOJ 221500Z AUTO 23017KT 9999 SCT037 13/07 Q1029

ElémentsDécodage
LFOJ Station météo située sur l'aérodrome de ORLEANS Bricy
221500Z émis le 22 du mois à 15h00 UTC
AUTO Bulletin édité par un automate
23017KT vent du 230°, 17 noeuds
9999 visibilité horizontale supérieure à 10 Km
SCT037 nuages épars (3/8 à 4/8) à 3700 pieds
13/07 température 13°C, point de rosée 07°C
 soit une humidité relative de 67%
Q1029 la pression au niveau de la mer (QNH) est de 1029 hPa